Time;durP1;ratioP1;P1;durP2;ratioP2;P2;SDS_P1;SDS_P2;PMS_P1;PMS_P2;Temp;Humidity;BMP_temperature;BMP_pressure;BME280_temperature;BME280_humidity;BME280_pressure;Samples;Min_cycle;Max_cycle;Signal;HPM_P1;HPM_P2
2022/06/24 00:01:56;;;;;;;0.50;0.50;;;21.50;91.50;;;;;;5102743;28;20255;-69
2022/06/24 00:04:51;;;;;;;0.40;0.40;;;21.40;91.90;;;;;;5095629;28;20188;-69
2022/06/24 00:07:46;;;;;;;0.40;0.40;;;21.40;92.00;;;;;;5092259;28;20227;-67
2022/06/24 00:10:36;;;;;;;0.40;0.40;;;21.40;92.20;;;;;;5093568;28;20699;-66
2022/06/24 00:13:38;;;;;;;0.50;0.50;;;21.30;92.40;;;;;;5094260;28;20216;-68
2022/06/24 00:16:26;;;;;;;0.50;0.50;;;21.30;92.60;;;;;;5092890;28;20212;-71
2022/06/24 00:19:15;;;;;;;0.40;0.40;;;21.30;92.70;;;;;;5092814;28;20203;-69
2022/06/24 00:22:09;;;;;;;0.40;0.40;;;21.30;93.00;;;;;;5092589;28;20227;-70
2022/06/24 00:25:08;;;;;;;0.50;0.50;;;21.20;93.10;;;;;;5092078;28;20196;-70
2022/06/24 00:28:02;;;;;;;0.40;0.40;;;21.20;93.40;;;;;;5093315;28;20191;-69
2022/06/24 00:30:53;;;;;;;0.40;0.40;;;21.10;93.50;;;;;;5092079;28;20249;-69
2022/06/24 00:33:46;;;;;;;0.90;0.90;;;21.10;93.70;;;;;;5093550;28;20215;-69
2022/06/24 00:36:34;;;;;;;0.40;0.40;;;21.00;93.80;;;;;;5091799;28;20202;-70
2022/06/24 00:39:32;;;;;;;0.50;0.50;;;21.00;93.80;;;;;;5091035;28;20199;-71
2022/06/24 00:42:21;;;;;;;0.50;0.50;;;20.90;94.10;;;;;;5091762;28;20716;-71
2022/06/24 00:45:18;;;;;;;0.40;0.40;;;20.90;94.10;;;;;;5090926;28;20242;-70
2022/06/24 00:48:16;;;;;;;0.40;0.40;;;20.90;94.30;;;;;;5089841;28;20237;-68
2022/06/24 00:51:06;;;;;;;0.40;0.40;;;20.80;94.60;;;;;;5090755;28;20273;-70
2022/06/24 00:53:56;;;;;;;0.50;0.50;;;20.80;94.70;;;;;;5090506;28;20226;-70
2022/06/24 00:56:45;;;;;;;0.50;0.50;;;20.80;95.00;;;;;;5091178;28;20203;-69
2022/06/24 00:59:35;;;;;;;0.40;0.40;;;20.70;95.20;;;;;;5091738;28;20736;-69
2022/06/24 01:02:24;;;;;;;0.50;0.50;;;20.70;95.40;;;;;;5091207;28;20258;-70
2022/06/24 01:05:14;;;;;;;0.40;0.40;;;20.70;95.70;;;;;;5091170;28;20196;-70
2022/06/24 01:08:07;;;;;;;0.40;0.40;;;20.60;95.90;;;;;;5091460;28;20570;-70
2022/06/24 01:10:55;;;;;;;0.50;0.50;;;20.60;96.10;;;;;;5090179;28;20219;-70
2022/06/24 01:13:44;;;;;;;0.40;0.40;;;20.60;96.30;;;;;;5090772;28;20235;-71
2022/06/24 01:16:32;;;;;;;0.52;0.52;;;20.50;96.60;;;;;;5091594;28;20541;-71
2022/06/24 01:19:20;;;;;;;0.50;0.50;;;20.50;96.80;;;;;;5092380;28;20200;-70
2022/06/24 01:22:11;;;;;;;0.50;0.50;;;20.40;97.10;;;;;;5094853;28;20261;-69
2022/06/24 01:24:59;;;;;;;0.40;0.40;;;20.30;97.30;;;;;;5095355;28;20277;-69
2022/06/24 01:27:47;;;;;;;0.40;0.40;;;20.30;97.60;;;;;;5094542;28;20257;-69
2022/06/24 01:30:35;;;;;;;0.50;0.50;;;20.30;98.00;;;;;;5094479;28;20273;-70
2022/06/24 01:33:23;;;;;;;0.40;0.40;;;20.20;98.20;;;;;;5094252;28;20289;-71
2022/06/24 01:36:11;;;;;;;0.40;0.40;;;20.10;98.30;;;;;;5094927;28;20281;-71
2022/06/24 01:39:01;;;;;;;0.50;0.50;;;20.10;98.50;;;;;;5093965;28;20192;-69
2022/06/24 01:41:49;;;;;;;0.50;0.50;;;20.10;98.50;;;;;;5095028;28;20734;-70
2022/06/24 01:44:37;;;;;;;0.50;0.50;;;20.10;98.70;;;;;;5094349;28;20192;-70
2022/06/24 01:47:31;;;;;;;0.50;0.50;;;20.00;98.90;;;;;;5094932;28;20196;-71
2022/06/24 01:50:19;;;;;;;0.40;0.40;;;20.00;99.00;;;;;;5095802;28;20664;-69
2022/06/24 01:53:08;;;;;;;0.43;0.43;;;19.90;99.10;;;;;;5107805;28;20653;-70
2022/06/24 01:55:57;;;;;;;0.50;0.50;;;19.90;99.30;;;;;;5088900;28;20192;-70
2022/06/24 01:58:45;;;;;;;0.40;0.40;;;19.80;99.60;;;;;;5074100;28;20243;-71
2022/06/24 02:01:33;;;;;;;2.05;1.95;;;19.80;99.90;;;;;;5073659;28;20717;-71
2022/06/24 02:04:22;;;;;;;0.50;0.50;;;19.70;99.90;;;;;;5073746;28;20192;-71
2022/06/24 02:07:10;;;;;;;0.50;0.50;;;19.70;99.90;;;;;;5074889;28;20204;-71
2022/06/24 02:16:07;;;;;;;0.40;0.40;;;19.60;99.90;;;;;;5074756;28;20232;-68
2022/06/24 02:18:57;;;;;;;0.40;0.40;;;19.50;99.90;;;;;;5073444;28;20201;-69
2022/06/24 02:21:45;;;;;;;0.50;0.50;;;19.50;99.90;;;;;;5074206;28;20287;-69
2022/06/24 02:24:33;;;;;;;1.17;1.08;;;19.50;99.90;;;;;;5073954;28;20235;-71
2022/06/24 02:27:21;;;;;;;0.50;0.50;;;19.50;99.90;;;;;;5074990;28;20254;-70
2022/06/24 02:30:11;;;;;;;0.40;0.40;;;19.50;99.90;;;;;;5073849;28;20196;-72
2022/06/24 02:33:00;;;;;;;0.47;0.47;;;19.40;99.90;;;;;;5075008;28;20262;-71
2022/06/24 02:35:48;;;;;;;2.33;2.22;;;19.40;99.90;;;;;;5074585;28;20216;-70
2022/06/24 02:38:36;;;;;;;0.40;0.40;;;19.30;99.90;;;;;;5075073;28;20258;-71
2022/06/24 02:41:32;;;;;;;0.47;0.47;;;19.30;99.90;;;;;;5075037;28;20220;-69
2022/06/24 02:44:20;;;;;;;0.50;0.50;;;19.20;99.90;;;;;;5074216;28;20250;-70
2022/06/24 02:47:09;;;;;;;0.52;0.52;;;19.20;99.90;;;;;;5074047;28;20234;-68
2022/06/24 02:49:57;;;;;;;0.40;0.40;;;19.20;99.90;;;;;;5074131;28;20573;-70
2022/06/24 02:52:45;;;;;;;0.40;0.40;;;19.20;99.90;;;;;;5075139;28;20240;-71
2022/06/24 02:55:33;;;;;;;0.40;0.40;;;19.10;99.90;;;;;;5073918;28;20221;-70
2022/06/24 02:58:22;;;;;;;0.43;0.43;;;19.10;99.90;;;;;;5073185;28;20205;-69
2022/06/24 03:01:11;;;;;;;0.40;0.40;;;19.00;99.90;;;;;;5073386;28;20199;-68
2022/06/24 03:04:00;;;;;;;0.40;0.40;;;19.00;99.90;;;;;;5074266;28;20208;-69
2022/06/24 03:06:48;;;;;;;0.40;0.40;;;19.00;99.90;;;;;;5074958;28;20232;-71
2022/06/24 03:09:36;;;;;;;0.40;0.40;;;19.00;99.90;;;;;;5073269;28;20624;-68
2022/06/24 03:12:25;;;;;;;0.50;0.50;;;18.90;99.90;;;;;;5073600;28;20270;-72
2022/06/24 03:15:13;;;;;;;0.43;0.43;;;18.90;99.90;;;;;;5073524;28;20234;-70
2022/06/24 03:18:01;;;;;;;0.50;0.50;;;18.90;99.90;;;;;;5074720;28;20266;-71
2022/06/24 03:20:50;;;;;;;0.40;0.40;;;18.90;99.90;;;;;;5074182;28;20204;-68
2022/06/24 03:23:38;;;;;;;0.40;0.40;;;18.90;99.90;;;;;;5072734;28;20199;-70
2022/06/24 03:26:27;;;;;;;0.40;0.40;;;19.00;99.90;;;;;;5073669;28;20189;-71
2022/06/24 03:29:15;;;;;;;0.40;0.40;;;18.90;99.90;;;;;;5072913;28;20192;-71
2022/06/24 03:32:03;;;;;;;0.40;0.40;;;18.90;99.90;;;;;;5073797;28;20217;-69
2022/06/24 03:34:51;;;;;;;0.40;0.40;;;18.90;99.90;;;;;;5080765;28;20221;-69
2022/06/24 03:37:41;;;;;;;0.40;0.40;;;19.00;99.90;;;;;;5079481;28;20224;-69
2022/06/24 03:40:29;;;;;;;0.40;0.40;;;19.00;99.90;;;;;;5072532;28;20700;-71
2022/06/24 03:43:18;;;;;;;0.40;0.40;;;19.00;99.90;;;;;;5072186;28;20243;-69
2022/06/24 03:46:06;;;;;;;0.40;0.40;;;19.00;99.90;;;;;;5072544;28;20197;-69
2022/06/24 03:48:54;;;;;;;0.40;0.40;;;19.00;99.90;;;;;;5071715;28;20201;-70
2022/06/24 03:51:42;;;;;;;0.40;0.40;;;19.00;99.90;;;;;;5071188;28;20228;-71
2022/06/24 03:54:32;;;;;;;0.40;0.40;;;19.00;99.90;;;;;;5071931;28;20213;-68
2022/06/24 03:57:20;;;;;;;0.47;0.47;;;19.00;99.90;;;;;;5071172;28;20205;-68
2022/06/24 04:00:09;;;;;;;0.50;0.50;;;19.00;99.90;;;;;;5071311;28;20217;-70
2022/06/24 04:02:58;;;;;;;0.40;0.40;;;19.00;99.90;;;;;;5071006;28;20236;-70
2022/06/24 04:05:46;;;;;;;0.40;0.40;;;19.10;99.90;;;;;;5071721;28;20201;-72
2022/06/24 04:08:35;;;;;;;0.50;0.50;;;19.10;99.90;;;;;;5071997;28;20208;-72
2022/06/24 04:11:24;;;;;;;0.40;0.40;;;19.10;99.90;;;;;;5071690;28;20222;-70
2022/06/24 04:14:12;;;;;;;0.40;0.40;;;19.10;99.90;;;;;;5071469;28;20242;-70
2022/06/24 04:17:03;;;;;;;0.40;0.40;;;19.20;99.90;;;;;;5070620;28;20196;-68
2022/06/24 04:19:52;;;;;;;0.50;0.50;;;19.20;99.90;;;;;;5070981;28;20208;-70
2022/06/24 04:22:42;;;;;;;0.50;0.50;;;19.20;99.90;;;;;;5070732;28;20219;-68
2022/06/24 04:25:30;;;;;;;0.40;0.40;;;19.30;99.90;;;;;;5071391;28;20201;-70
2022/06/24 04:28:20;;;;;;;0.50;0.50;;;19.30;99.90;;;;;;5070919;28;20254;-70
2022/06/24 04:31:08;;;;;;;0.40;0.40;;;19.30;99.90;;;;;;5070698;28;20208;-70
2022/06/24 04:33:56;;;;;;;0.40;0.40;;;19.40;99.90;;;;;;5070602;28;20200;-70
2022/06/24 04:36:44;;;;;;;0.40;0.40;;;19.40;99.90;;;;;;5070375;28;20220;-70
2022/06/24 04:39:33;;;;;;;0.50;0.50;;;19.40;99.90;;;;;;5070860;28;20264;-69
2022/06/24 04:42:21;;;;;;;0.50;0.50;;;19.50;99.90;;;;;;5071928;28;20267;-69
2022/06/24 04:45:11;;;;;;;0.40;0.40;;;19.60;99.90;;;;;;5071421;28;20648;-69
2022/06/24 04:47:59;;;;;;;0.40;0.40;;;19.70;99.90;;;;;;5070666;28;20209;-70
2022/06/24 04:50:47;;;;;;;0.40;0.40;;;19.70;99.90;;;;;;5071383;28;20672;-70
2022/06/24 04:53:35;;;;;;;1.40;1.30;;;19.70;99.90;;;;;;5070648;28;20234;-72
2022/06/24 04:56:23;;;;;;;0.40;0.40;;;19.70;99.90;;;;;;5074958;28;20696;-70
2022/06/24 04:59:15;;;;;;;0.50;0.50;;;19.80;99.90;;;;;;5074697;28;20204;-71
2022/06/24 05:02:05;;;;;;;0.40;0.40;;;19.80;99.90;;;;;;5074313;28;20228;-70
2022/06/24 05:04:55;;;;;;;0.45;0.45;;;19.90;99.90;;;;;;5074381;28;20605;-70
2022/06/24 05:07:43;;;;;;;0.95;0.95;;;20.00;99.90;;;;;;5075087;28;20211;-68
2022/06/24 05:10:31;;;;;;;0.50;0.50;;;20.10;99.90;;;;;;5074999;28;20203;-69
2022/06/24 05:13:19;;;;;;;0.40;0.40;;;20.10;99.90;;;;;;5074548;28;20220;-70
2022/06/24 05:16:07;;;;;;;0.40;0.40;;;20.20;99.90;;;;;;5074365;28;20220;-70
2022/06/24 05:19:17;;;;;;;0.50;0.50;;;20.30;99.90;;;;;;5074353;28;20227;-70
2022/06/24 05:22:05;;;;;;;0.40;0.40;;;20.40;99.90;;;;;;5073945;28;20664;-69
2022/06/24 05:24:53;;;;;;;0.40;0.40;;;20.50;99.90;;;;;;5073835;28;20255;-69
2022/06/24 05:27:42;;;;;;;0.40;0.40;;;20.50;99.90;;;;;;5073989;28;20201;-70
2022/06/24 05:30:30;;;;;;;0.40;0.40;;;20.60;99.90;;;;;;5073929;28;20197;-70
2022/06/24 05:33:18;;;;;;;0.40;0.40;;;20.70;99.90;;;;;;5087562;28;20786;-71
2022/06/24 05:36:08;;;;;;;0.70;0.70;;;20.80;99.90;;;;;;5073873;28;20225;-69
2022/06/24 05:38:57;;;;;;;0.40;0.40;;;20.90;99.90;;;;;;5074556;28;20201;-69
2022/06/24 05:41:45;;;;;;;0.50;0.50;;;21.00;99.90;;;;;;5074453;28;20221;-68
2022/06/24 05:44:34;;;;;;;0.40;0.40;;;21.10;99.90;;;;;;5074102;28;20193;-70
2022/06/24 05:47:22;;;;;;;0.40;0.40;;;21.20;99.90;;;;;;5073599;28;20589;-69
2022/06/24 05:50:10;;;;;;;0.43;0.43;;;21.20;99.90;;;;;;5073415;28;20197;-68
2022/06/24 05:56:06;;;;;;;0.40;0.40;;;21.40;99.90;;;;;;5088374;28;20220;-68
2022/06/24 05:58:54;;;;;;;0.40;0.40;;;21.50;99.90;;;;;;5094057;28;20265;-69
2022/06/24 06:01:42;;;;;;;0.75;0.75;;;21.60;99.90;;;;;;5084748;28;20242;-67
2022/06/24 06:04:30;;;;;;;0.40;0.40;;;21.70;99.90;;;;;;5085993;28;20204;-69
2022/06/24 06:07:19;;;;;;;0.52;0.52;;;21.80;99.90;;;;;;5092740;28;20196;-68
2022/06/24 06:10:09;;;;;;;0.40;0.40;;;22.00;99.90;;;;;;5073629;28;20733;-67
2022/06/24 06:12:58;;;;;;;0.50;0.50;;;22.00;99.90;;;;;;5073130;28;20213;-71
2022/06/24 06:15:46;;;;;;;0.40;0.40;;;22.10;99.90;;;;;;5072635;28;20213;-69
2022/06/24 06:18:34;;;;;;;0.40;0.40;;;22.20;99.90;;;;;;5073136;28;20629;-70
2022/06/24 06:21:22;;;;;;;0.50;0.50;;;22.30;99.90;;;;;;5087784;28;20207;-69
2022/06/24 06:24:11;;;;;;;0.50;0.50;;;22.40;99.90;;;;;;5093434;28;20203;-69
2022/06/24 06:27:00;;;;;;;0.50;0.50;;;22.50;99.90;;;;;;5093745;28;20188;-70
2022/06/24 06:29:48;;;;;;;0.70;0.70;;;22.60;99.90;;;;;;5092706;28;20208;-68
2022/06/24 06:32:36;;;;;;;0.45;0.45;;;22.60;99.90;;;;;;5093195;28;20224;-68
2022/06/24 06:35:25;;;;;;;0.40;0.40;;;22.80;99.90;;;;;;5092408;28;20207;-69
2022/06/24 06:38:13;;;;;;;0.40;0.40;;;22.90;99.90;;;;;;5093415;28;20210;-68
2022/06/24 06:41:02;;;;;;;0.40;0.40;;;23.00;99.90;;;;;;5093097;28;20204;-69
2022/06/24 06:43:51;;;;;;;0.40;0.40;;;23.10;99.90;;;;;;5093224;28;20223;-69
2022/06/24 06:46:45;;;;;;;0.40;0.40;;;23.10;99.90;;;;;;5092992;28;20207;-67
2022/06/24 06:49:34;;;;;;;0.40;0.40;;;23.30;99.90;;;;;;5093408;28;20215;-67
2022/06/24 06:52:22;;;;;;;0.40;0.40;;;23.40;99.90;;;;;;5092984;28;20227;-68
2022/06/24 06:55:10;;;;;;;0.40;0.40;;;23.50;99.90;;;;;;5092996;28;20203;-67
2022/06/24 06:57:58;;;;;;;0.40;0.40;;;23.60;99.90;;;;;;5076767;28;20270;-67
2022/06/24 07:00:48;;;;;;;0.50;0.50;;;23.60;99.70;;;;;;5071742;28;20665;-68
2022/06/24 07:03:36;;;;;;;0.50;0.50;;;23.70;99.00;;;;;;5072849;28;20220;-68
2022/06/24 07:06:25;;;;;;;0.40;0.40;;;23.80;98.70;;;;;;5072407;28;20192;-69
2022/06/24 07:09:13;;;;;;;0.50;0.50;;;23.90;98.40;;;;;;5071959;28;20197;-68
2022/06/24 07:12:01;;;;;;;0.40;0.40;;;24.00;98.00;;;;;;5072385;28;20228;-68
2022/06/24 07:14:49;;;;;;;0.50;0.50;;;24.00;97.70;;;;;;5072128;28;20242;-68
2022/06/24 07:17:39;;;;;;;0.40;0.40;;;24.10;97.50;;;;;;5072516;28;20229;-68
2022/06/24 07:20:27;;;;;;;0.60;0.60;;;24.20;96.90;;;;;;5072196;28;20200;-66
2022/06/24 07:23:15;;;;;;;0.40;0.40;;;24.30;97.00;;;;;;5072111;28;20252;-67
2022/06/24 07:26:03;;;;;;;0.50;0.50;;;24.40;96.50;;;;;;5073257;28;20200;-68
2022/06/24 07:28:51;;;;;;;0.50;0.50;;;24.40;96.00;;;;;;5072505;28;20197;-68
2022/06/24 07:31:39;;;;;;;0.40;0.40;;;24.50;96.10;;;;;;5073466;28;20705;-68
2022/06/24 07:34:30;;;;;;;0.60;0.60;;;24.60;95.70;;;;;;5072763;28;20727;-68
2022/06/24 07:37:19;;;;;;;0.40;0.40;;;24.70;95.50;;;;;;5072017;28;20295;-68
2022/06/24 07:40:08;;;;;;;0.40;0.40;;;24.80;94.70;;;;;;5072266;28;20661;-67
2022/06/24 07:42:56;;;;;;;0.40;0.40;;;24.90;94.60;;;;;;5071943;28;20286;-67
2022/06/24 07:45:45;;;;;;;0.40;0.40;;;25.00;94.40;;;;;;5072432;28;20199;-68
2022/06/24 07:48:33;;;;;;;0.50;0.50;;;25.00;93.60;;;;;;5070879;28;20197;-67
2022/06/24 07:51:25;;;;;;;0.40;0.40;;;25.20;93.20;;;;;;5071450;28;20211;-67
2022/06/24 07:54:13;;;;;;;0.40;0.40;;;25.20;93.30;;;;;;5071733;28;20255;-67
2022/06/24 07:57:01;;;;;;;0.40;0.40;;;25.30;93.00;;;;;;5079584;28;20243;-67
2022/06/24 07:59:49;;;;;;;0.60;0.60;;;25.30;92.40;;;;;;5081237;28;20636;-67
2022/06/24 08:02:37;;;;;;;0.40;0.40;;;25.40;92.40;;;;;;5071356;28;20220;-67
2022/06/24 08:05:26;;;;;;;0.40;0.40;;;25.50;91.90;;;;;;5085977;28;20783;-67
2022/06/24 08:08:15;;;;;;;0.40;0.40;;;25.60;91.90;;;;;;5091110;28;20196;-68
2022/06/24 08:11:03;;;;;;;0.40;0.40;;;25.70;91.10;;;;;;5090907;28;20693;-68
2022/06/24 08:13:57;;;;;;;0.40;0.40;;;25.80;90.70;;;;;;5088251;28;20254;-66
2022/06/24 08:16:45;;;;;;;0.40;0.40;;;25.80;90.50;;;;;;5082443;28;20216;-66
2022/06/24 08:19:35;;;;;;;0.40;0.40;;;25.90;89.30;;;;;;5090395;28;20277;-66
2022/06/24 08:22:23;;;;;;;1.05;0.80;;;26.00;88.60;;;;;;5090951;28;20216;-67
2022/06/24 08:25:13;;;;;;;0.40;0.40;;;26.10;87.50;;;;;;5091513;28;20209;-67
2022/06/24 08:28:10;;;;;;;0.40;0.40;;;26.20;86.70;;;;;;5090686;28;20196;-67
2022/06/24 08:30:58;;;;;;;0.40;0.40;;;26.20;86.50;;;;;;5090664;28;20216;-67
2022/06/24 08:33:52;;;;;;;0.40;0.40;;;26.40;83.70;;;;;;5073229;28;20204;-67
2022/06/24 08:36:41;;;;;;;0.40;0.40;;;26.50;84.30;;;;;;5069922;28;20233;-67
2022/06/24 08:39:29;;;;;;;0.40;0.40;;;26.50;83.40;;;;;;5071762;28;20204;-66
2022/06/24 08:42:19;;;;;;;0.40;0.40;;;26.70;82.50;;;;;;5065828;28;20219;-68
2022/06/24 08:45:08;;;;;;;0.40;0.40;;;26.70;81.40;;;;;;5071146;28;20201;-68
2022/06/24 08:47:57;;;;;;;0.70;0.70;;;26.80;80.20;;;;;;5071761;28;20665;-68
2022/06/24 08:50:47;;;;;;;0.40;0.40;;;27.00;79.20;;;;;;5071183;28;20201;-68
2022/06/24 08:53:38;;;;;;;0.40;0.40;;;27.10;79.40;;;;;;5070302;28;20227;-67
2022/06/24 08:56:26;;;;;;;0.40;0.40;;;27.20;78.20;;;;;;5074042;28;20200;-66
2022/06/24 08:59:16;;;;;;;0.40;0.40;;;27.20;77.60;;;;;;5089813;28;20576;-67
2022/06/24 09:02:04;;;;;;;0.40;0.40;;;27.30;78.00;;;;;;5069571;28;20220;-67
2022/06/24 09:04:53;;;;;;;0.40;0.40;;;27.30;76.70;;;;;;5071011;28;20197;-66
2022/06/24 09:07:41;;;;;;;0.40;0.40;;;27.40;76.30;;;;;;5071482;28;20204;-67
2022/06/24 09:10:29;;;;;;;0.40;0.40;;;27.50;76.00;;;;;;5070196;28;20583;-68
2022/06/24 09:13:21;;;;;;;0.40;0.40;;;27.50;75.60;;;;;;5070961;28;20759;-66
2022/06/24 09:16:11;;;;;;;0.70;0.70;;;27.60;76.10;;;;;;5070920;28;20551;-66
2022/06/24 09:19:01;;;;;;;0.40;0.40;;;27.70;74.80;;;;;;5070642;28;20224;-67
2022/06/24 09:21:49;;;;;;;0.57;0.47;;;27.70;74.60;;;;;;5071205;28;20719;-67
2022/06/24 09:24:45;;;;;;;0.40;0.40;;;27.80;74.00;;;;;;5071244;28;20207;-67
2022/06/24 09:27:34;;;;;;;0.40;0.40;;;27.80;73.30;;;;;;5071020;28;20201;-67
2022/06/24 09:30:22;;;;;;;0.60;0.60;;;27.80;73.00;;;;;;5071049;28;20279;-67
2022/06/24 09:33:17;;;;;;;0.40;0.40;;;27.90;73.40;;;;;;5073187;28;20884;-67
2022/06/24 09:36:26;;;;;;;0.60;0.60;;;27.90;73.70;;;;;;5074095;28;20203;-66
2022/06/24 09:39:15;;;;;;;0.43;0.43;;;28.00;72.80;;;;;;5072087;28;20224;-67
2022/06/24 09:42:20;;;;;;;0.50;0.50;;;28.10;73.10;;;;;;5073641;28;20212;-67
2022/06/24 09:45:09;;;;;;;0.55;0.55;;;28.10;72.80;;;;;;5074266;28;20205;-67
2022/06/24 09:48:02;;;;;;;0.40;0.40;;;28.10;73.30;;;;;;5073980;28;20204;-68
2022/06/24 09:50:52;;;;;;;0.40;0.40;;;28.20;73.00;;;;;;5074961;28;20250;-67
2022/06/24 09:53:41;;;;;;;0.50;0.50;;;28.20;72.70;;;;;;5086712;28;20574;-67
2022/06/24 09:56:29;;;;;;;0.40;0.40;;;28.30;71.90;;;;;;5077252;28;20188;-67
2022/06/24 10:02:32;;;;;;;0.60;0.60;;;28.40;72.70;;;;;;5032050;28;20247;-67
2022/06/24 10:05:23;;;;;;;0.40;0.40;;;28.50;71.10;;;;;;5090718;28;20199;-67
2022/06/24 10:08:14;;;;;;;0.40;0.40;;;28.50;70.70;;;;;;5108570;28;20690;-67
2022/06/24 10:11:08;;;;;;;0.40;0.40;;;28.50;70.40;;;;;;5093913;28;20261;-67
2022/06/24 10:13:57;;;;;;;0.40;0.40;;;28.50;70.60;;;;;;5093989;28;20200;-65
2022/06/24 10:16:48;;;;;;;0.40;0.40;;;28.60;69.90;;;;;;5091780;28;20664;-65
2022/06/24 10:19:38;;;;;;;0.50;0.50;;;28.60;70.50;;;;;;5093031;28;20207;-65
2022/06/24 10:22:38;;;;;;;0.40;0.40;;;28.60;70.60;;;;;;5091586;28;20231;-65
2022/06/24 10:25:52;;;;;;;0.50;0.50;;;28.70;70.70;;;;;;5083250;28;20673;-65
2022/06/24 10:29:17;;;;;;;0.40;0.40;;;28.80;69.50;;;;;;5072324;28;20278;-65
2022/06/24 10:32:08;;;;;;;0.50;0.50;;;28.90;68.30;;;;;;5072332;28;20282;-65
2022/06/24 10:34:58;;;;;;;0.40;0.40;;;28.90;68.10;;;;;;5065140;28;20201;-66
2022/06/24 10:37:51;;;;;;;0.40;0.40;;;29.10;68.30;;;;;;5073273;28;20221;-66
2022/06/24 10:40:40;;;;;;;0.40;0.40;;;29.00;67.70;;;;;;5072609;28;20208;-66
2022/06/24 10:43:38;;;;;;;0.40;0.40;;;29.10;68.40;;;;;;5072630;28;20235;-66
2022/06/24 10:46:26;;;;;;;0.40;0.40;;;29.20;68.20;;;;;;5072083;28;20192;-65
2022/06/24 10:49:14;;;;;;;0.50;0.50;;;29.30;66.50;;;;;;5072860;28;20193;-66
2022/06/24 10:52:33;;;;;;;0.40;0.40;;;29.30;65.40;;;;;;5091410;28;20223;-66
2022/06/24 10:55:31;;;;;;;0.40;0.40;;;29.40;66.20;;;;;;5092401;28;20204;-66
2022/06/24 10:58:20;;;;;;;0.40;0.40;;;29.40;65.70;;;;;;5073077;28;20685;-66
2022/06/24 11:01:09;;;;;;;0.43;0.43;;;29.50;65.60;;;;;;5071751;28;20574;-66
2022/06/24 11:03:58;;;;;;;0.40;0.40;;;29.50;65.90;;;;;;5071103;28;20581;-66
2022/06/24 11:07:09;;;;;;;0.40;0.40;;;29.60;65.00;;;;;;5072258;28;20212;-66
2022/06/24 11:09:57;;;;;;;0.45;0.40;;;29.80;65.30;;;;;;5076308;28;20196;-66
2022/06/24 11:12:49;;;;;;;0.40;0.40;;;30.00;62.20;;;;;;5093221;28;20234;-66
2022/06/24 11:15:39;;;;;;;0.40;0.40;;;30.20;61.80;;;;;;5092082;28;20200;-66
2022/06/24 11:18:31;;;;;;;0.63;0.63;;;30.30;61.10;;;;;;5092090;28;20212;-66
2022/06/24 11:21:19;;;;;;;0.40;0.40;;;30.40;59.70;;;;;;5091586;28;20203;-66
2022/06/24 11:24:08;;;;;;;0.47;0.47;;;30.60;59.20;;;;;;5092266;28;20203;-66
2022/06/24 11:27:07;;;;;;;0.40;0.40;;;30.80;60.00;;;;;;5091546;28;20668;-66
2022/06/24 11:29:57;;;;;;;0.40;0.40;;;31.10;59.20;;;;;;5092674;28;20195;-66
2022/06/24 11:32:51;;;;;;;0.40;0.40;;;31.50;59.20;;;;;;5093852;28;20700;-67
2022/06/24 11:35:41;;;;;;;0.40;0.40;;;31.70;58.10;;;;;;5101627;28;20208;-66
2022/06/24 11:38:29;;;;;;;0.40;0.40;;;31.80;57.50;;;;;;5091352;28;20220;-66
2022/06/24 11:41:25;;;;;;;0.50;0.50;;;32.00;57.80;;;;;;5084564;28;20482;-66
2022/06/24 11:44:35;;;;;;;0.40;0.40;;;32.10;57.30;;;;;;5092517;28;20207;-66
2022/06/24 11:47:34;;;;;;;0.40;0.40;;;32.20;57.20;;;;;;5090880;28;20637;-66
2022/06/24 11:50:23;;;;;;;0.40;0.40;;;32.40;56.60;;;;;;5090817;28;20209;-66
2022/06/24 11:53:12;;;;;;;0.40;0.40;;;32.70;56.90;;;;;;5091359;28;20614;-66
2022/06/24 11:56:07;;;;;;;0.40;0.40;;;33.00;55.10;;;;;;5091662;28;20199;-66
2022/06/24 11:58:56;;;;;;;0.40;0.40;;;33.10;55.00;;;;;;5091632;28;20227;-66
2022/06/24 12:01:44;;;;;;;0.40;0.40;;;33.00;54.70;;;;;;5091915;28;20245;-66
2022/06/24 12:04:33;;;;;;;0.40;0.40;;;32.90;54.70;;;;;;5090267;28;20568;-65
2022/06/24 12:07:23;;;;;;;0.50;0.50;;;32.90;55.70;;;;;;5091572;28;20708;-66
2022/06/24 12:10:12;;;;;;;0.88;0.88;;;32.90;55.00;;;;;;5091830;28;20334;-66
2022/06/24 12:13:05;;;;;;;0.40;0.40;;;32.90;55.00;;;;;;5091658;28;20220;-67
2022/06/24 12:15:55;;;;;;;0.50;0.50;;;32.90;54.80;;;;;;5091538;28;20695;-67
2022/06/24 12:18:43;;;;;;;0.40;0.40;;;32.90;54.20;;;;;;5091323;28;20231;-67
2022/06/24 12:21:33;;;;;;;0.50;0.50;;;32.80;55.10;;;;;;5084963;28;20703;-67
2022/06/24 12:24:22;;;;;;;0.40;0.40;;;33.00;53.90;;;;;;5085804;28;20215;-67
2022/06/24 12:27:13;;;;;;;0.40;0.40;;;33.10;52.90;;;;;;5076514;28;20200;-66
2022/06/24 12:30:01;;;;;;;0.40;0.40;;;33.20;52.90;;;;;;5090628;28;20257;-68
2022/06/24 12:32:50;;;;;;;0.40;0.40;;;33.30;52.80;;;;;;5090528;28;20223;-68
2022/06/24 12:35:38;;;;;;;0.40;0.40;;;33.70;52.90;;;;;;5091149;28;20551;-67
2022/06/24 12:38:43;;;;;;;0.50;0.50;;;34.00;52.70;;;;;;5090797;28;20199;-66
2022/06/24 12:41:42;;;;;;;0.40;0.40;;;34.90;50.50;;;;;;5070769;28;20204;-66
2022/06/24 12:44:41;;;;;;;0.50;0.50;;;35.10;50.70;;;;;;5070448;28;20289;-67
2022/06/24 12:50:38;;;;;;;0.60;0.60;;;37.80;47.40;;;;;;5070764;28;20204;-67
2022/06/24 12:53:26;;;;;;;0.40;0.40;;;38.90;45.20;;;;;;5070763;28;20221;-67
2022/06/24 12:56:14;;;;;;;0.50;0.50;;;41.00;43.70;;;;;;5071071;28;20699;-67
2022/06/24 12:59:03;;;;;;;0.50;0.50;;;42.70;41.50;;;;;;5070260;28;20232;-67
2022/06/24 13:01:52;;;;;;;0.50;0.50;;;43.60;38.70;;;;;;5069817;28;20216;-68
2022/06/24 13:04:40;;;;;;;0.50;0.50;;;44.30;37.80;;;;;;5070927;28;20207;-69
2022/06/24 13:07:28;;;;;;;0.50;0.50;;;45.10;37.30;;;;;;5070680;28;20205;-69
2022/06/24 13:10:18;;;;;;;0.63;0.63;;;45.30;36.40;;;;;;5075883;28;20665;-69
2022/06/24 13:13:07;;;;;;;0.60;0.60;;;46.00;35.00;;;;;;5096986;28;20226;-69
2022/06/24 13:15:55;;;;;;;0.50;0.50;;;45.80;34.10;;;;;;5106984;28;20257;-68
2022/06/24 13:18:45;;;;;;;0.50;0.50;;;44.10;35.00;;;;;;5094852;28;20211;-68
2022/06/24 13:21:33;;;;;;;0.50;0.50;;;43.60;34.90;;;;;;5094524;28;20232;-69
2022/06/24 13:24:21;;;;;;;0.40;0.40;;;43.30;35.10;;;;;;5094104;28;20199;-67
2022/06/24 13:27:09;;;;;;;0.70;0.70;;;41.70;35.60;;;;;;5093964;28;20253;-68
2022/06/24 13:29:58;;;;;;;0.50;0.50;;;40.20;37.80;;;;;;5094605;28;20196;-68
2022/06/24 13:32:46;;;;;;;0.40;0.40;;;39.30;38.80;;;;;;5094638;28;20215;-68
2022/06/24 13:35:36;;;;;;;0.50;0.50;;;38.70;39.40;;;;;;5097109;28;20810;-67
2022/06/24 13:38:24;;;;;;;0.50;0.50;;;38.40;39.90;;;;;;5083406;28;20657;-68
2022/06/24 13:41:12;;;;;;;0.50;0.50;;;38.50;40.30;;;;;;5067971;28;20228;-68
2022/06/24 13:44:00;;;;;;;0.57;0.57;;;38.90;39.90;;;;;;5073757;28;20730;-68
2022/06/24 13:46:50;;;;;;;0.50;0.50;;;39.10;39.20;;;;;;5073534;28;20212;-68
2022/06/24 13:49:42;;;;;;;0.50;0.50;;;39.50;39.20;;;;;;5073533;28;20193;-68
2022/06/24 13:52:31;;;;;;;0.50;0.50;;;40.30;37.80;;;;;;5073636;28;20278;-68
2022/06/24 13:55:20;;;;;;;0.50;0.50;;;40.60;38.10;;;;;;5073383;28;20215;-68
2022/06/24 13:58:08;;;;;;;0.40;0.40;;;40.60;37.50;;;;;;5073689;28;20205;-67
2022/06/24 14:00:57;;;;;;;0.40;0.40;;;39.90;37.90;;;;;;5072571;28;20216;-67
2022/06/24 14:03:46;;;;;;;0.50;0.50;;;39.10;38.60;;;;;;5072906;28;20197;-67
2022/06/24 14:06:34;;;;;;;0.40;0.40;;;39.10;39.40;;;;;;5073071;28;20292;-67
2022/06/24 14:09:24;;;;;;;1.50;1.50;;;39.40;39.10;;;;;;5072746;28;20275;-67
2022/06/24 14:12:12;;;;;;;0.50;0.50;;;39.30;38.80;;;;;;5073033;28;20645;-67
2022/06/24 14:15:00;;;;;;;0.50;0.50;;;41.40;37.30;;;;;;5072837;28;20204;-67
2022/06/24 14:17:48;;;;;;;0.50;0.50;;;43.00;35.20;;;;;;5073071;28;20204;-67
2022/06/24 14:20:37;;;;;;;0.50;0.50;;;43.20;34.70;;;;;;5071255;28;20761;-67
2022/06/24 14:26:41;;;;;;;0.50;0.50;;;43.40;34.60;;;;;;5060814;28;20250;-68
2022/06/24 14:29:29;;;;;;;0.50;0.50;;;43.90;33.30;;;;;;5073478;28;20615;-68
2022/06/24 14:32:17;;;;;;;0.50;0.50;;;42.30;34.10;;;;;;5067984;28;20224;-68
2022/06/24 14:35:06;;;;;;;0.50;0.50;;;41.00;35.20;;;;;;5073934;28;20197;-68
2022/06/24 14:41:00;;;;;;;0.43;0.43;;;38.80;37.20;;;;;;5072180;28;20691;-68
2022/06/24 14:43:54;;;;;;;0.40;0.40;;;38.00;37.80;;;;;;5072410;28;20201;-67
2022/06/24 14:46:42;;;;;;;0.50;0.50;;;37.50;38.50;;;;;;5073335;28;20258;-67
2022/06/24 14:49:32;;;;;;;0.40;0.40;;;37.00;38.80;;;;;;5072712;28;20205;-67
2022/06/24 14:52:20;;;;;;;0.40;0.40;;;36.50;38.90;;;;;;5072762;28;20233;-68
2022/06/24 14:55:09;;;;;;;0.40;0.40;;;36.20;39.40;;;;;;5072238;28;20205;-67
2022/06/24 14:57:58;;;;;;;0.40;0.40;;;35.90;39.70;;;;;;5072174;28;20205;-67
2022/06/24 15:00:47;;;;;;;0.40;0.40;;;35.80;40.50;;;;;;5072297;28;20217;-67
2022/06/24 15:03:35;;;;;;;0.50;0.50;;;35.90;41.10;;;;;;5071841;28;20229;-67
2022/06/24 15:06:27;;;;;;;0.40;0.40;;;35.90;42.60;;;;;;5071939;28;20204;-67
2022/06/24 15:09:15;;;;;;;0.50;0.50;;;35.70;43.60;;;;;;5072635;28;20203;-67